createdAt,value
2024-05-09T00:00:35.773Z,100.00
2024-05-09T00:03:10.400Z,100.00
2024-05-09T00:05:38.725Z,100.00
2024-05-09T00:08:06.563Z,100.00
2024-05-09T00:10:37.128Z,100.00
2024-05-09T00:13:07.059Z,100.00
2024-05-09T00:15:34.726Z,100.00
2024-05-09T00:18:02.142Z,100.00
2024-05-09T00:20:36.977Z,100.00
2024-05-09T00:23:07.485Z,100.00
2024-05-09T00:25:34.875Z,100.00
2024-05-09T00:28:01.667Z,100.00
2024-05-09T00:30:34.129Z,100.00
2024-05-09T00:33:04.642Z,100.00
2024-05-09T00:35:32.278Z,100.00
2024-05-09T00:37:59.082Z,100.00
2024-05-09T00:40:35.528Z,100.00
2024-05-09T00:43:06.922Z,100.00
2024-05-09T00:45:34.652Z,100.00
2024-05-09T00:48:04.835Z,100.00
2024-05-09T00:50:36.611Z,100.00
2024-05-09T00:53:06.338Z,100.00
2024-05-09T00:55:34.434Z,100.00
2024-05-09T00:58:01.957Z,100.00
2024-05-09T01:00:35.971Z,100.00
2024-05-09T01:03:06.441Z,100.00
2024-05-09T01:05:34.632Z,100.00
2024-05-09T01:08:02.339Z,100.00
2024-05-09T01:10:34.322Z,100.00
2024-05-09T01:13:03.788Z,100.00
2024-05-09T01:15:30.511Z,100.00
2024-05-09T01:17:58.091Z,100.00
2024-05-09T01:20:36.489Z,100.00
2024-05-09T01:23:09.381Z,100.00
2024-05-09T01:25:36.411Z,100.00
2024-05-09T01:28:03.009Z,100.00
2024-05-09T01:30:34.769Z,100.00
2024-05-09T01:33:04.853Z,100.00
2024-05-09T01:35:32.115Z,100.00
2024-05-09T01:37:58.706Z,100.00
2024-05-09T01:40:35.396Z,100.00
2024-05-09T01:43:04.913Z,100.00
2024-05-09T01:45:31.515Z,100.00
2024-05-09T01:47:58.673Z,100.00
2024-05-09T01:50:37.184Z,100.00
2024-05-09T01:53:07.531Z,100.00
2024-05-09T01:55:34.267Z,100.00
2024-05-09T01:58:00.888Z,100.00
2024-05-09T02:00:37.409Z,100.00
2024-05-09T02:03:11.273Z,100.00
2024-05-09T02:05:40.281Z,100.00
2024-05-09T02:08:07.484Z,100.00
2024-05-09T02:10:34.098Z,100.00
2024-05-09T02:13:00.949Z,100.00
2024-05-09T02:15:27.711Z,100.00
2024-05-09T02:17:54.492Z,100.00
2024-05-09T02:20:30.226Z,100.00
2024-05-09T02:23:03.589Z,100.00
2024-05-09T02:25:30.545Z,100.00
2024-05-09T02:27:57.248Z,100.00
2024-05-09T02:30:31.031Z,100.00
2024-05-09T02:33:05.942Z,100.00
2024-05-09T02:35:32.931Z,100.00
2024-05-09T02:37:59.824Z,100.00
2024-05-09T02:40:35.467Z,100.00
2024-05-09T02:43:04.911Z,100.00
2024-05-09T02:45:31.460Z,100.00
2024-05-09T02:47:58.299Z,100.00
2024-05-09T02:50:33.688Z,100.00
2024-05-09T02:53:05.088Z,100.00
2024-05-09T02:55:31.914Z,100.00
2024-05-09T02:57:58.469Z,100.00
2024-05-09T03:00:34.253Z,100.00
2024-05-09T03:03:06.117Z,100.00
2024-05-09T03:05:33.394Z,100.00
2024-05-09T03:08:00.101Z,100.00
2024-05-09T03:10:29.096Z,100.00
2024-05-09T03:13:05.954Z,100.00
2024-05-09T03:15:32.992Z,100.00
2024-05-09T03:18:00.914Z,100.00
2024-05-09T03:20:33.364Z,100.00
2024-05-09T03:23:02.293Z,100.00
2024-05-09T03:25:28.995Z,100.00
2024-05-09T03:27:55.675Z,100.00
2024-05-09T03:30:31.105Z,100.00
2024-05-09T03:33:10.505Z,100.00
2024-05-09T03:35:37.753Z,100.00
2024-05-09T03:38:04.595Z,100.00
2024-05-09T03:40:31.468Z,100.00
2024-05-09T03:42:58.751Z,100.00
2024-05-09T03:45:25.475Z,100.00
2024-05-09T03:47:52.673Z,100.00
2024-05-09T03:50:29.435Z,100.00
2024-05-09T03:53:01.003Z,100.00
2024-05-09T03:55:27.855Z,100.00
2024-05-09T03:57:54.405Z,100.00
2024-05-09T04:00:30.503Z,100.00
2024-05-09T04:03:02.859Z,100.00
2024-05-09T04:05:30.779Z,100.00
2024-05-09T04:07:57.769Z,100.00
2024-05-09T04:10:31.235Z,100.00
2024-05-09T04:13:00.491Z,100.00
2024-05-09T04:15:27.039Z,100.00
2024-05-09T04:17:53.772Z,100.00
2024-05-09T04:20:29.377Z,100.00
2024-05-09T04:23:04.239Z,100.00
2024-05-09T04:25:32.025Z,100.00
2024-05-09T04:27:58.563Z,100.00
2024-05-09T04:30:34.588Z,100.00
2024-05-09T04:33:06.417Z,100.00
2024-05-09T04:35:33.815Z,100.00
2024-05-09T04:38:00.592Z,100.00
2024-05-09T04:40:33.179Z,100.00
2024-05-09T04:43:02.875Z,100.00
2024-05-09T04:45:29.399Z,100.00
2024-05-09T04:47:56.067Z,100.00
2024-05-09T04:50:30.297Z,100.00
2024-05-09T04:53:03.183Z,100.00
2024-05-09T04:55:29.904Z,100.00
2024-05-09T04:57:56.414Z,100.00
2024-05-09T05:00:32.310Z,100.00
2024-05-09T05:03:08.391Z,100.00
2024-05-09T05:05:42.288Z,100.00
2024-05-09T05:08:17.770Z,100.00
2024-05-09T05:10:46.057Z,100.00
2024-05-09T05:13:20.776Z,100.00
2024-05-09T05:15:57.367Z,100.00
2024-05-09T05:18:26.119Z,100.00
2024-05-09T05:20:53.094Z,100.00
2024-05-09T05:23:20.657Z,100.00
2024-05-09T05:25:48.774Z,100.00
2024-05-09T05:28:16.331Z,100.00
2024-05-09T05:30:43.178Z,100.00
2024-05-09T05:33:11.095Z,96.38
2024-05-09T05:35:38.049Z,92.49
2024-05-09T05:38:06.296Z,89.48
2024-05-09T05:40:37.019Z,86.50
2024-05-09T05:43:08.861Z,84.16
2024-05-09T05:45:35.750Z,82.91
2024-05-09T05:48:07.344Z,80.39
2024-05-09T05:50:37.198Z,78.99
2024-05-09T05:53:08.859Z,78.03
2024-05-09T05:55:36.711Z,76.48
2024-05-09T05:58:03.406Z,75.28
2024-05-09T06:00:37.564Z,74.45
2024-05-09T06:03:06.494Z,73.28
2024-05-09T06:05:33.284Z,73.26
2024-05-09T06:08:00.246Z,72.63
2024-05-09T06:10:36.971Z,72.06
2024-05-09T06:13:06.265Z,72.07
2024-05-09T06:15:32.795Z,71.11
2024-05-09T06:17:59.576Z,70.73
2024-05-09T06:20:34.730Z,69.28
2024-05-09T06:23:04.139Z,68.73
2024-05-09T06:25:30.758Z,70.56
2024-05-09T06:27:57.278Z,75.11
2024-05-09T06:30:35.050Z,78.31
2024-05-09T06:33:06.968Z,80.71
2024-05-09T06:35:34.217Z,83.57
2024-05-09T06:38:01.214Z,85.35
2024-05-09T06:40:36.294Z,85.85
2024-05-09T06:43:10.160Z,88.21
2024-05-09T06:45:37.029Z,88.52
2024-05-09T06:48:03.961Z,89.00
2024-05-09T06:50:36.853Z,88.94
2024-05-09T06:53:04.907Z,89.14
2024-05-09T06:55:31.512Z,89.16
2024-05-09T06:57:58.030Z,88.46
2024-05-09T07:00:30.897Z,87.96
2024-05-09T07:03:16.675Z,86.76
2024-05-09T07:05:45.850Z,87.88
2024-05-09T07:08:13.175Z,87.77
2024-05-09T07:10:41.078Z,86.81
2024-05-09T07:13:09.748Z,85.80
2024-05-09T07:15:36.283Z,85.15
2024-05-09T07:18:17.808Z,85.50
2024-05-09T07:20:45.982Z,84.29
2024-05-09T07:23:13.264Z,83.62
2024-05-09T07:25:41.260Z,85.82
2024-05-09T07:28:18.699Z,85.45
2024-05-09T07:30:45.701Z,84.24
2024-05-09T07:33:20.200Z,84.38
2024-05-09T07:35:48.164Z,83.81
2024-05-09T07:38:14.944Z,83.63
2024-05-09T07:40:41.746Z,84.06
2024-05-09T07:43:11.538Z,83.74
2024-05-09T07:45:48.505Z,83.28
2024-05-09T07:52:37.535Z,84.14
2024-05-09T07:53:47.889Z,82.25
2024-05-09T07:56:18.590Z,81.00
2024-05-09T07:58:46.150Z,80.75
2024-05-09T08:01:12.984Z,80.21
2024-05-09T08:03:39.859Z,77.84
2024-05-09T08:06:06.477Z,78.63
2024-05-09T08:08:32.978Z,76.90
2024-05-09T08:10:59.535Z,76.83
2024-05-09T08:13:26.066Z,76.38
2024-05-09T08:15:53.690Z,75.24
2024-05-09T08:18:20.417Z,72.76
2024-05-09T08:20:48.845Z,70.83
2024-05-09T08:23:15.646Z,70.27
2024-05-09T08:25:42.333Z,70.78
2024-05-09T08:28:09.251Z,70.54
2024-05-09T08:30:37.585Z,69.76
2024-05-09T08:33:06.708Z,67.77
2024-05-09T08:35:34.562Z,67.94
2024-05-09T08:38:03.167Z,68.29
2024-05-09T08:40:35.441Z,70.28
2024-05-09T08:43:07.653Z,69.57
2024-05-09T08:45:35.814Z,68.78
2024-05-09T08:48:05.857Z,69.57
2024-05-09T08:50:38.701Z,68.55
2024-05-09T08:53:07.188Z,68.78
2024-05-09T08:55:33.929Z,67.02
2024-05-09T08:58:02.259Z,65.87
2024-05-09T09:00:36.516Z,67.74
2024-05-09T09:03:08.978Z,68.79
2024-05-09T09:05:39.540Z,67.42
2024-05-09T09:08:08.245Z,66.88
2024-05-09T09:10:35.602Z,66.95
2024-05-09T09:13:04.657Z,67.58
2024-05-09T09:15:31.870Z,67.38
2024-05-09T09:18:00.436Z,65.23
2024-05-09T09:20:35.325Z,64.08
2024-05-09T09:23:03.542Z,62.93
2024-05-09T09:25:30.525Z,63.19
2024-05-09T09:27:58.537Z,64.55
2024-05-09T09:30:35.240Z,64.44
2024-05-09T09:33:05.855Z,63.19
2024-05-09T09:35:32.838Z,64.69
2024-05-09T09:38:03.131Z,63.76
2024-05-09T09:40:38.631Z,63.09
2024-05-09T09:43:30.483Z,64.66
2024-05-09T09:45:59.714Z,64.08
2024-05-09T09:48:27.308Z,64.26
2024-05-09T09:50:55.253Z,63.26
2024-05-09T09:53:23.247Z,64.73
2024-05-09T09:55:52.158Z,64.48
2024-05-09T09:58:19.254Z,63.95
2024-05-09T10:00:46.168Z,64.85
2024-05-09T10:03:13.415Z,64.83
2024-05-09T10:05:42.966Z,62.08
2024-05-09T10:08:12.779Z,60.90
2024-05-09T10:10:40.132Z,61.99
2024-05-09T10:13:08.344Z,61.48
2024-05-09T10:15:48.478Z,60.32
2024-05-09T10:18:15.543Z,58.01
2024-05-09T10:20:46.430Z,56.22
2024-05-09T10:23:43.814Z,58.33
2024-05-09T10:26:10.419Z,56.49
2024-05-09T10:28:42.632Z,56.94
2024-05-09T10:31:14.781Z,54.44
2024-05-09T10:33:50.868Z,55.72
2024-05-09T10:36:21.996Z,56.22
2024-05-09T10:38:50.032Z,52.27
2024-05-09T10:41:17.485Z,52.63
2024-05-09T10:43:44.169Z,53.75
2024-05-09T10:46:11.613Z,52.77
2024-05-09T10:48:39.588Z,53.97
2024-05-09T10:51:06.407Z,55.08
2024-05-09T10:53:40.449Z,56.43
2024-05-09T10:56:07.198Z,52.39
2024-05-09T10:58:33.703Z,52.98
2024-05-09T11:01:02.356Z,50.78
2024-05-09T11:03:31.067Z,49.20
2024-05-09T11:05:57.941Z,50.46
2024-05-09T11:08:24.986Z,48.75
2024-05-09T11:10:52.853Z,49.84
2024-05-09T11:13:30.257Z,49.75
2024-05-09T11:15:57.354Z,50.67
2024-05-09T11:18:26.769Z,48.28
2024-05-09T11:20:56.249Z,48.82
2024-05-09T11:23:30.072Z,48.80
2024-05-09T11:25:58.347Z,50.15
2024-05-09T11:28:26.962Z,50.73
2024-05-09T11:31:05.264Z,50.95
2024-05-09T11:33:31.990Z,50.89
2024-05-09T11:35:58.728Z,51.73
2024-05-09T11:38:25.299Z,51.18
2024-05-09T11:40:51.894Z,50.67
2024-05-09T11:43:18.592Z,51.49
2024-05-09T11:45:45.184Z,52.30
2024-05-09T11:48:11.970Z,50.88
2024-05-09T11:50:39.319Z,50.86
2024-05-09T11:53:06.635Z,52.55
2024-05-09T11:55:36.372Z,54.28
2024-05-09T11:58:04.241Z,54.28
2024-05-09T12:00:36.667Z,53.19
2024-05-09T12:03:05.637Z,54.97
2024-05-09T12:05:34.014Z,53.51
2024-05-09T12:08:01.401Z,54.57
2024-05-09T12:10:32.931Z,54.40
2024-05-09T12:13:02.221Z,54.29
2024-05-09T12:15:29.022Z,54.97
2024-05-09T12:17:58.340Z,55.54
2024-05-09T12:20:35.135Z,56.09
2024-05-09T12:23:05.187Z,55.23
2024-05-09T12:25:34.036Z,55.02
2024-05-09T12:28:01.093Z,56.23
2024-05-09T12:30:36.123Z,55.72
2024-05-09T12:33:07.958Z,56.14
2024-05-09T12:35:34.860Z,56.65
2024-05-09T12:38:01.518Z,55.55
2024-05-09T12:40:35.558Z,56.16
2024-05-09T12:43:06.589Z,57.24
2024-05-09T12:45:33.618Z,56.56
2024-05-09T12:48:00.718Z,54.76
2024-05-09T12:50:32.543Z,54.61
2024-05-09T12:53:01.452Z,55.90
2024-05-09T12:55:29.832Z,57.02
2024-05-09T12:57:58.947Z,55.53
2024-05-09T13:00:31.660Z,57.62
2024-05-09T13:03:01.101Z,56.63
2024-05-09T13:05:28.291Z,55.46
2024-05-09T13:07:56.692Z,54.01
2024-05-09T13:10:31.049Z,55.49
2024-05-09T13:13:00.268Z,56.14
2024-05-09T13:15:27.496Z,54.60
2024-05-09T13:17:55.813Z,54.66
2024-05-09T13:20:31.212Z,54.83
2024-05-09T13:23:01.720Z,54.67
2024-05-09T13:25:28.381Z,55.23
2024-05-09T13:27:55.359Z,54.86
2024-05-09T13:30:29.495Z,56.07
2024-05-09T13:33:05.164Z,56.77
2024-05-09T13:35:32.252Z,56.02
2024-05-09T13:37:59.065Z,56.66
2024-05-09T13:40:32.690Z,55.65
2024-05-09T13:43:02.072Z,55.20
2024-05-09T13:45:29.120Z,56.48
2024-05-09T13:47:55.928Z,56.89
2024-05-09T13:50:31.298Z,55.84
2024-05-09T13:53:02.083Z,57.12
2024-05-09T13:55:28.751Z,57.48
2024-05-09T13:57:55.719Z,57.13
2024-05-09T14:00:32.245Z,57.81
2024-05-09T14:03:09.132Z,58.08
2024-05-09T14:05:36.038Z,58.51
2024-05-09T14:08:03.265Z,57.92
2024-05-09T14:10:31.861Z,58.33
2024-05-09T14:13:00.047Z,58.26
2024-05-09T14:15:26.994Z,58.68
2024-05-09T14:17:54.503Z,59.10
2024-05-09T14:20:30.324Z,58.81
2024-05-09T14:22:59.284Z,59.98
2024-05-09T14:25:28.282Z,58.67
2024-05-09T14:27:55.366Z,57.80
2024-05-09T14:30:30.602Z,58.37
2024-05-09T14:33:03.659Z,58.21
2024-05-09T14:35:30.403Z,57.96
2024-05-09T14:37:57.022Z,57.73
2024-05-09T14:42:53.075Z,57.67
2024-05-09T14:45:19.662Z,57.55
2024-05-09T14:47:46.426Z,57.61
2024-05-09T14:50:19.598Z,57.89
2024-05-09T14:52:54.054Z,56.69
2024-05-09T14:55:20.600Z,57.51
2024-05-09T14:57:47.247Z,57.58
2024-05-09T15:00:21.096Z,54.74
2024-05-09T15:02:52.948Z,54.61
2024-05-09T15:05:19.679Z,54.53
2024-05-09T15:07:46.344Z,53.80
2024-05-09T15:10:20.380Z,53.80
2024-05-09T15:12:50.577Z,53.11
2024-05-09T15:15:17.714Z,52.82
2024-05-09T15:17:44.865Z,53.14
2024-05-09T15:20:17.141Z,54.37
2024-05-09T15:22:46.908Z,54.45
2024-05-09T15:25:13.850Z,54.17
2024-05-09T15:27:40.584Z,54.39
2024-05-09T15:30:10.699Z,55.48
2024-05-09T15:32:37.632Z,56.02
2024-05-09T15:35:05.463Z,56.15
2024-05-09T15:37:32.377Z,56.49
2024-05-09T15:39:59.027Z,55.62
2024-05-09T15:42:25.594Z,54.30
2024-05-09T15:44:53.045Z,55.90
2024-05-09T15:47:20.185Z,56.15
2024-05-09T15:49:47.673Z,55.12
2024-05-09T15:52:17.918Z,56.25
2024-05-09T15:54:44.560Z,55.93
2024-05-09T15:57:11.972Z,55.63
2024-05-09T15:59:38.601Z,54.07
2024-05-09T16:02:05.907Z,53.72
2024-05-09T16:04:32.706Z,53.50
2024-05-09T16:06:59.459Z,52.74
2024-05-09T16:09:26.115Z,54.20
2024-05-09T16:11:52.830Z,53.90
2024-05-09T16:14:19.444Z,54.20
2024-05-09T16:16:46.521Z,54.38
2024-05-09T16:19:13.642Z,55.39
2024-05-09T16:21:40.327Z,54.56
2024-05-09T16:24:06.945Z,54.74
2024-05-09T16:26:33.602Z,54.93
2024-05-09T16:29:00.140Z,53.57
2024-05-09T16:31:26.924Z,52.43
2024-05-09T16:33:53.808Z,53.48
2024-05-09T16:36:20.584Z,53.30
2024-05-09T16:38:47.136Z,54.03
2024-05-09T16:41:15.408Z,53.13
2024-05-09T16:43:41.953Z,53.14
2024-05-09T16:46:08.981Z,54.19
2024-05-09T16:48:36.621Z,52.39
2024-05-09T16:51:03.288Z,53.55
2024-05-09T16:53:29.818Z,53.68
2024-05-09T16:55:56.405Z,53.26
2024-05-09T16:58:23.651Z,53.32
2024-05-09T17:00:50.826Z,53.28
2024-05-09T17:03:17.718Z,54.24
2024-05-09T17:05:46.913Z,55.38
2024-05-09T17:08:16.264Z,55.68
2024-05-09T17:10:42.999Z,54.49
2024-05-09T17:13:10.180Z,54.15
2024-05-09T17:15:37.544Z,53.93
2024-05-09T17:18:06.428Z,54.39
2024-05-09T17:20:36.242Z,54.37
2024-05-09T17:23:06.100Z,54.39
2024-05-09T17:25:33.287Z,52.09
2024-05-09T17:28:06.396Z,52.87
2024-05-09T17:30:36.683Z,52.50
2024-05-09T17:33:06.501Z,51.04
2024-05-09T17:35:33.275Z,51.41
2024-05-09T17:38:01.510Z,53.24
2024-05-09T17:40:33.490Z,52.40
2024-05-09T17:43:03.348Z,52.31
2024-05-09T17:45:30.575Z,52.30
2024-05-09T17:47:57.662Z,52.00
2024-05-09T17:50:31.211Z,52.09
2024-05-09T17:53:01.945Z,51.90
2024-05-09T17:55:28.850Z,53.39
2024-05-09T17:57:55.616Z,53.86
2024-05-09T18:00:32.835Z,54.35
2024-05-09T18:03:06.195Z,55.37
2024-05-09T18:05:33.195Z,56.34
2024-05-09T18:08:00.067Z,57.09
2024-05-09T18:10:33.704Z,57.57
2024-05-09T18:13:05.490Z,58.60
2024-05-09T18:15:32.565Z,59.30
2024-05-09T18:17:59.562Z,59.68
2024-05-09T18:20:32.990Z,60.32
2024-05-09T18:23:07.779Z,61.08
2024-05-09T18:25:34.421Z,61.27
2024-05-09T18:28:04.200Z,61.75
2024-05-09T18:30:34.552Z,61.80
2024-05-09T18:33:03.439Z,62.68
2024-05-09T18:35:30.227Z,63.18
2024-05-09T18:37:56.879Z,63.77
2024-05-09T18:42:52.907Z,64.42
2024-05-09T18:45:19.471Z,64.64
2024-05-09T18:47:46.285Z,65.03
2024-05-09T18:50:20.421Z,65.50
2024-05-09T18:52:54.252Z,66.21
2024-05-09T18:55:20.819Z,66.80
2024-05-09T18:57:47.455Z,67.56
2024-05-09T19:00:26.628Z,68.27
2024-05-09T19:03:00.580Z,68.34
2024-05-09T19:05:27.629Z,68.08
2024-05-09T19:07:54.433Z,68.43
2024-05-09T19:10:23.031Z,68.08
2024-05-09T19:12:52.845Z,68.31
2024-05-09T19:15:19.427Z,68.33
2024-05-09T19:17:47.299Z,68.57
2024-05-09T19:20:24.811Z,68.44
2024-05-09T19:22:55.819Z,68.51
2024-05-09T19:25:22.337Z,69.43
2024-05-09T19:27:49.028Z,69.70
2024-05-09T19:30:25.065Z,69.97
2024-05-09T19:33:00.626Z,70.78
2024-05-09T19:35:27.261Z,70.59
2024-05-09T19:37:53.883Z,71.31
2024-05-09T19:40:28.611Z,71.53
2024-05-09T19:42:58.459Z,71.60
2024-05-09T19:45:25.152Z,71.00
2024-05-09T19:47:52.037Z,71.67
2024-05-09T19:50:26.683Z,71.87
2024-05-09T19:52:59.476Z,71.79
2024-05-09T19:55:26.265Z,72.32
2024-05-09T19:57:52.928Z,73.42
2024-05-09T20:00:26.174Z,73.55
2024-05-09T20:02:56.346Z,74.47
2024-05-09T20:05:23.560Z,74.74
2024-05-09T20:07:50.269Z,75.45
2024-05-09T20:10:23.688Z,76.31
2024-05-09T20:12:53.831Z,76.73
2024-05-09T20:15:20.470Z,76.78
2024-05-09T20:17:47.175Z,76.72
2024-05-09T20:20:24.503Z,76.76
2024-05-09T20:22:59.734Z,76.88
2024-05-09T20:25:26.321Z,76.92
2024-05-09T20:27:52.953Z,77.95
2024-05-09T20:30:28.884Z,78.18
2024-05-09T20:32:59.405Z,78.40
2024-05-09T20:35:26.667Z,78.69
2024-05-09T20:37:53.332Z,78.79
2024-05-09T20:40:28.258Z,78.91
2024-05-09T20:42:58.736Z,79.25
2024-05-09T20:45:25.428Z,80.19
2024-05-09T20:47:52.164Z,81.34
2024-05-09T20:50:28.028Z,82.15
2024-05-09T20:53:02.562Z,82.85
2024-05-09T20:55:30.029Z,83.02
2024-05-09T20:57:57.049Z,83.18
2024-05-09T21:00:30.291Z,83.76
2024-05-09T21:03:06.300Z,83.57
2024-05-09T21:05:33.722Z,83.99
2024-05-09T21:08:00.658Z,84.43
2024-05-09T21:10:31.541Z,84.67
2024-05-09T21:12:59.525Z,85.54
2024-05-09T21:15:26.054Z,85.99
2024-05-09T21:17:52.588Z,86.45
2024-05-09T21:20:24.286Z,87.09
2024-05-09T21:22:57.492Z,87.20
2024-05-09T21:25:24.028Z,87.52
2024-05-09T21:27:50.679Z,87.45
2024-05-09T21:30:26.745Z,87.38
2024-05-09T21:32:59.348Z,88.02
2024-05-09T21:35:25.959Z,88.72
2024-05-09T21:37:52.510Z,89.15
2024-05-09T21:40:27.232Z,90.03
2024-05-09T21:43:00.762Z,90.13
2024-05-09T21:45:27.640Z,90.66
2024-05-09T21:47:54.414Z,91.02
2024-05-09T21:50:27.639Z,91.46
2024-05-09T21:52:58.873Z,91.73
2024-05-09T21:55:25.502Z,92.67
2024-05-09T21:57:52.326Z,92.40
2024-05-09T22:00:28.656Z,92.74
2024-05-09T22:03:02.051Z,93.37
2024-05-09T22:05:28.890Z,94.09
2024-05-09T22:07:55.527Z,94.19
2024-05-09T22:10:26.535Z,94.70
2024-05-09T22:12:59.266Z,95.11
2024-05-09T22:15:25.924Z,95.65
2024-05-09T22:17:52.593Z,96.00
2024-05-09T22:20:26.024Z,96.40
2024-05-09T22:23:00.746Z,96.92
2024-05-09T22:25:29.714Z,97.26
2024-05-09T22:27:57.212Z,97.42
2024-05-09T22:30:31.122Z,97.08
2024-05-09T22:33:01.628Z,98.07
2024-05-09T22:35:28.178Z,98.31
2024-05-09T22:37:55.235Z,98.69
2024-05-09T22:40:29.511Z,98.68
2024-05-09T22:43:05.610Z,98.12
2024-05-09T22:45:32.476Z,98.33
2024-05-09T22:47:59.350Z,98.98
2024-05-09T22:50:27.107Z,99.72
2024-05-09T22:52:58.899Z,100.00
2024-05-09T22:55:25.420Z,100.00
2024-05-09T22:57:52.103Z,100.00
2024-05-09T23:00:22.037Z,100.00
2024-05-09T23:02:55.293Z,100.00
2024-05-09T23:05:22.104Z,100.00
2024-05-09T23:07:48.677Z,100.00
2024-05-09T23:10:21.332Z,100.00
2024-05-09T23:12:54.886Z,100.00
2024-05-09T23:15:21.492Z,100.00
2024-05-09T23:17:48.130Z,100.00
2024-05-09T23:20:17.799Z,100.00
2024-05-09T23:22:48.002Z,100.00
2024-05-09T23:25:14.591Z,100.00
2024-05-09T23:27:41.623Z,100.00
2024-05-09T23:30:12.148Z,100.00
2024-05-09T23:32:39.103Z,100.00
2024-05-09T23:35:06.088Z,100.00
2024-05-09T23:37:32.664Z,100.00
2024-05-09T23:39:59.272Z,100.00
2024-05-09T23:42:25.914Z,100.00
2024-05-09T23:44:53.561Z,100.00
2024-05-09T23:47:20.094Z,100.00
2024-05-09T23:49:46.704Z,100.00
2024-05-09T23:52:13.377Z,100.00
2024-05-09T23:54:40.103Z,100.00
2024-05-09T23:57:06.637Z,100.00
2024-05-09T23:59:33.185Z,100.00
